Time;durP1;ratioP1;P1;durP2;ratioP2;P2;SDS_P1;SDS_P2;PMS_P1;PMS_P2;Temp;Humidity;BMP_temperature;BMP_pressure;BME280_temperature;BME280_humidity;BME280_pressure;Samples;Min_cycle;Max_cycle;Signal;HPM_P1;HPM_P2
2021/07/29 00:01:17;;;;;;;6.15;3.30;;;18.40;91.70;;;;;;5008940;28;20033;-71
2021/07/29 00:03:43;;;;;;;8.05;2.88;;;18.30;91.80;;;;;;5006761;28;20117;-71
2021/07/29 00:06:14;;;;;;;10.40;3.70;;;18.30;91.80;;;;;;5007447;28;20404;-71
2021/07/29 00:08:40;;;;;;;7.03;3.25;;;18.30;91.80;;;;;;5007851;28;20080;-71
2021/07/29 00:11:05;;;;;;;7.50;3.03;;;18.30;91.80;;;;;;5007725;28;20042;-71
2021/07/29 00:13:30;;;;;;;8.65;3.25;;;18.20;91.80;;;;;;5008843;28;20053;-71
2021/07/29 00:15:58;;;;;;;8.20;4.45;;;18.20;91.90;;;;;;5007404;28;20117;-70
2021/07/29 00:21:07;;;;;;;3.05;2.65;;;18.20;91.80;;;;;;5009551;28;20508;-71
2021/07/29 00:23:33;;;;;;;5.00;2.70;;;18.20;91.80;;;;;;5008346;28;20030;-71
2021/07/29 00:25:58;;;;;;;6.68;2.95;;;18.20;91.90;;;;;;5011887;28;20041;-71
2021/07/29 00:28:24;;;;;;;5.57;3.08;;;18.20;91.80;;;;;;5012612;28;20033;-70
2021/07/29 00:30:49;;;;;;;5.30;2.60;;;18.10;91.80;;;;;;5011472;28;20025;-71
2021/07/29 00:33:15;;;;;;;7.75;3.22;;;18.10;91.90;;;;;;5012371;28;20022;-71
2021/07/29 00:35:40;;;;;;;5.63;2.90;;;18.10;92.10;;;;;;5013062;28;20076;-70
2021/07/29 00:38:06;;;;;;;4.35;2.97;;;18.10;92.10;;;;;;5010281;28;20026;-71
2021/07/29 00:40:31;;;;;;;7.05;2.88;;;18.00;92.10;;;;;;5010262;28;20771;-71
2021/07/29 00:42:57;;;;;;;8.93;2.88;;;18.00;92.00;;;;;;5009689;28;20060;-71
2021/07/29 00:45:23;;;;;;;8.35;3.08;;;18.00;92.20;;;;;;5008561;28;20065;-71
2021/07/29 00:47:48;;;;;;;6.28;2.40;;;18.00;92.00;;;;;;5009899;28;20022;-70
2021/07/29 00:50:15;;;;;;;5.85;2.72;;;18.00;91.80;;;;;;5011003;28;20030;-71
2021/07/29 00:52:41;;;;;;;3.22;2.42;;;18.00;91.80;;;;;;5011182;28;20064;-71
2021/07/29 00:55:07;;;;;;;6.93;1.95;;;17.90;91.80;;;;;;5008783;28;20069;-71
2021/07/29 00:57:34;;;;;;;5.78;2.90;;;17.90;91.90;;;;;;5008759;28;20032;-71
2021/07/29 01:00:00;;;;;;;8.95;2.78;;;17.90;91.90;;;;;;5009127;28;20029;-71
2021/07/29 01:02:26;;;;;;;6.22;2.83;;;17.80;91.80;;;;;;5011195;28;20034;-70
2021/07/29 01:04:51;;;;;;;3.42;2.67;;;17.80;91.90;;;;;;5010074;28;20091;-77
2021/07/29 01:07:17;;;;;;;5.05;2.20;;;17.80;92.00;;;;;;5010691;28;20034;-77
2021/07/29 01:09:42;;;;;;;3.60;2.10;;;18.00;92.00;;;;;;5008293;28;20033;-76
2021/07/29 01:12:08;;;;;;;8.20;2.47;;;18.20;91.60;;;;;;5011737;28;20507;-76
2021/07/29 01:14:34;;;;;;;2.85;2.13;;;18.40;91.30;;;;;;5010873;28;20033;-76
2021/07/29 01:17:01;;;;;;;4.35;2.85;;;18.50;91.10;;;;;;5011444;28;20042;-76
2021/07/29 01:19:28;;;;;;;6.53;2.38;;;18.50;90.70;;;;;;5009421;28;20038;-75
2021/07/29 01:21:54;;;;;;;3.63;2.00;;;18.50;90.50;;;;;;5011569;28;20026;-75
2021/07/29 01:24:21;;;;;;;6.78;2.30;;;18.40;90.60;;;;;;5010878;28;20037;-75
2021/07/29 01:26:46;;;;;;;4.15;2.90;;;18.50;90.60;;;;;;5011179;28;20026;-76
2021/07/29 01:29:12;;;;;;;2.33;2.05;;;18.50;90.40;;;;;;5005779;28;20574;-75
2021/07/29 01:31:37;;;;;;;6.97;2.90;;;18.60;90.30;;;;;;5010799;28;20106;-75
2021/07/29 01:34:04;;;;;;;6.55;3.03;;;18.50;90.20;;;;;;5011306;28;20101;-76
2021/07/29 01:36:31;;;;;;;4.50;2.22;;;18.50;90.00;;;;;;5008980;28;20040;-75
2021/07/29 01:38:57;;;;;;;5.53;2.22;;;18.50;90.00;;;;;;5009814;28;20108;-75
2021/07/29 01:41:22;;;;;;;9.82;2.25;;;18.60;90.00;;;;;;5011003;28;20213;-75
2021/07/29 01:43:48;;;;;;;2.90;2.10;;;18.60;90.10;;;;;;5009155;28;20030;-75
2021/07/29 01:46:13;;;;;;;4.68;2.17;;;18.70;89.60;;;;;;5009896;28;20042;-75
2021/07/29 01:48:39;;;;;;;4.40;1.98;;;18.70;89.10;;;;;;5008777;28;20076;-75
2021/07/29 01:51:04;;;;;;;5.35;2.38;;;18.70;89.00;;;;;;5010180;28;20080;-75
2021/07/29 01:53:30;;;;;;;11.80;2.50;;;18.70;88.80;;;;;;5010613;28;20625;-75
2021/07/29 01:55:55;;;;;;;6.47;2.80;;;18.60;88.50;;;;;;5009980;28;20026;-75
2021/07/29 01:58:21;;;;;;;4.57;3.63;;;18.60;88.80;;;;;;5009339;28;20037;-75
2021/07/29 02:00:48;;;;;;;13.85;8.68;;;18.50;88.70;;;;;;5007338;28;20034;-75
2021/07/29 02:03:14;;;;;;;5.55;3.63;;;18.40;88.70;;;;;;5008173;28;20029;-75
2021/07/29 02:05:40;;;;;;;13.20;7.60;;;18.40;88.80;;;;;;5010298;28;20621;-75
2021/07/29 02:08:06;;;;;;;16.20;8.13;;;18.50;88.70;;;;;;5008270;28;20026;-75
2021/07/29 02:10:32;;;;;;;6.55;4.88;;;18.50;88.40;;;;;;5009580;28;20030;-75
2021/07/29 02:12:58;;;;;;;15.25;9.00;;;18.50;88.20;;;;;;5010452;28;20068;-75
2021/07/29 02:15:24;;;;;;;8.63;5.78;;;18.50;88.10;;;;;;5008212;28;20037;-75
2021/07/29 02:17:54;;;;;;;7.53;3.88;;;18.40;88.00;;;;;;5024413;28;20033;-75
2021/07/29 02:20:20;;;;;;;4.97;2.92;;;18.40;88.30;;;;;;5010059;28;20026;-75
2021/07/29 02:22:45;;;;;;;5.78;2.55;;;18.40;88.10;;;;;;5010205;28;20374;-75
2021/07/29 02:25:12;;;;;;;7.60;3.47;;;18.50;88.00;;;;;;5009097;28;20058;-75
2021/07/29 02:27:37;;;;;;;4.03;2.30;;;18.60;88.00;;;;;;5009374;28;20037;-76
2021/07/29 02:30:03;;;;;;;8.13;2.67;;;18.60;87.70;;;;;;5009101;28;20041;-75
2021/07/29 02:32:28;;;;;;;5.85;2.97;;;18.60;87.60;;;;;;5008668;28;20088;-75
2021/07/29 02:34:54;;;;;;;12.15;3.83;;;18.60;87.70;;;;;;5008315;28;20026;-75
2021/07/29 02:37:23;;;;;;;5.38;2.97;;;18.50;87.50;;;;;;5009631;28;20034;-75
2021/07/29 02:39:49;;;;;;;5.03;2.60;;;18.40;87.40;;;;;;5007423;28;20053;-75
2021/07/29 02:42:15;;;;;;;3.70;1.80;;;18.40;87.60;;;;;;5008452;28;20030;-75
2021/07/29 02:44:41;;;;;;;2.85;1.85;;;18.50;87.40;;;;;;5008938;28;20036;-76
2021/07/29 02:47:06;;;;;;;4.05;2.40;;;18.40;87.40;;;;;;5007289;28;20053;-75
2021/07/29 02:49:32;;;;;;;4.70;2.50;;;18.40;87.40;;;;;;5006849;28;20034;-75
2021/07/29 02:51:57;;;;;;;4.15;2.00;;;18.40;87.30;;;;;;5009652;28;20108;-75
2021/07/29 02:54:23;;;;;;;3.55;2.30;;;18.40;87.60;;;;;;5007920;28;20539;-75
2021/07/29 02:56:50;;;;;;;3.38;2.65;;;18.40;87.60;;;;;;5007004;28;20037;-75
2021/07/29 02:59:15;;;;;;;3.78;1.92;;;18.40;87.50;;;;;;5007669;28;20500;-76
2021/07/29 03:01:41;;;;;;;4.85;2.65;;;18.40;87.30;;;;;;5008905;28;20550;-75
2021/07/29 03:04:06;;;;;;;5.28;2.38;;;18.50;87.20;;;;;;5007488;28;20025;-76
2021/07/29 03:06:32;;;;;;;6.30;2.60;;;18.60;87.00;;;;;;5007687;28;20044;-76
2021/07/29 03:09:01;;;;;;;4.30;2.47;;;18.60;86.80;;;;;;5009425;28;20087;-75
2021/07/29 03:11:27;;;;;;;7.10;2.47;;;18.60;86.80;;;;;;5009527;28;20034;-75
2021/07/29 03:13:54;;;;;;;3.70;2.13;;;18.60;86.80;;;;;;4999538;28;20037;-75
2021/07/29 03:16:19;;;;;;;5.45;2.10;;;18.60;87.00;;;;;;5010435;28;20057;-75
2021/07/29 03:18:45;;;;;;;5.80;2.40;;;18.50;87.30;;;;;;5007916;28;20646;-76
2021/07/29 03:21:10;;;;;;;3.80;2.35;;;18.30;87.80;;;;;;5007626;28;20041;-75
2021/07/29 03:23:36;;;;;;;3.40;1.80;;;18.20;87.70;;;;;;5008918;28;20036;-75
2021/07/29 03:26:02;;;;;;;3.83;2.13;;;18.20;88.20;;;;;;5009805;28;20113;-75
2021/07/29 03:28:28;;;;;;;5.05;1.85;;;18.30;88.30;;;;;;5007761;28;20052;-76
2021/07/29 03:30:53;;;;;;;2.10;1.90;;;18.30;88.00;;;;;;5008650;28;20476;-75
2021/07/29 03:33:20;;;;;;;8.10;2.22;;;18.40;87.90;;;;;;5009247;28;20034;-75
2021/07/29 03:35:45;;;;;;;9.82;2.83;;;18.50;87.80;;;;;;5006710;28;20026;-75
2021/07/29 03:38:11;;;;;;;3.30;1.80;;;18.50;87.60;;;;;;5006663;28;20087;-75
2021/07/29 03:40:38;;;;;;;2.97;2.05;;;18.50;87.50;;;;;;5007118;28;20037;-75
2021/07/29 03:43:06;;;;;;;13.10;2.40;;;18.60;87.40;;;;;;5007643;28;20420;-75
2021/07/29 03:45:33;;;;;;;3.55;2.53;;;18.60;87.10;;;;;;5016017;28;20030;-75
2021/07/29 03:47:59;;;;;;;6.25;2.42;;;18.50;86.90;;;;;;5007291;28;20029;-75
2021/07/29 03:50:26;;;;;;;3.50;1.70;;;18.60;87.00;;;;;;5007849;28;20029;-75
2021/07/29 03:52:51;;;;;;;3.92;1.92;;;18.60;87.00;;;;;;5008146;28;20029;-75
2021/07/29 03:55:17;;;;;;;7.47;1.92;;;18.70;86.80;;;;;;5007366;28;20022;-75
2021/07/29 03:57:43;;;;;;;4.53;2.03;;;18.70;86.90;;;;;;5008292;28;20063;-75
2021/07/29 04:00:09;;;;;;;4.75;2.25;;;18.70;86.80;;;;;;5011210;28;20421;-75
2021/07/29 04:02:35;;;;;;;4.50;2.10;;;18.70;86.50;;;;;;5009149;28;20030;-75
2021/07/29 04:05:01;;;;;;;4.47;2.20;;;18.80;86.30;;;;;;5012068;28;20545;-75
2021/07/29 04:07:26;;;;;;;8.95;3.13;;;18.90;86.20;;;;;;5032420;28;20497;-75
2021/07/29 04:09:52;;;;;;;8.00;2.38;;;18.90;85.90;;;;;;5008910;28;20080;-75
2021/07/29 04:12:18;;;;;;;7.68;2.97;;;18.90;85.70;;;;;;5010241;28;20030;-75
2021/07/29 04:14:44;;;;;;;5.80;2.42;;;18.90;85.60;;;;;;5012142;28;20396;-75
2021/07/29 04:17:11;;;;;;;6.47;2.65;;;18.80;85.60;;;;;;5012100;28;20128;-75
2021/07/29 04:19:37;;;;;;;4.68;2.78;;;18.80;85.50;;;;;;5008868;28;20037;-75
2021/07/29 04:22:05;;;;;;;5.07;2.38;;;18.80;85.50;;;;;;5009162;28;20517;-76
2021/07/29 04:24:31;;;;;;;3.85;2.33;;;18.90;85.70;;;;;;5010369;28;20038;-75
2021/07/29 04:26:57;;;;;;;8.05;4.00;;;19.00;85.50;;;;;;5009516;28;20034;-76
2021/07/29 04:29:24;;;;;;;6.25;4.10;;;19.10;85.60;;;;;;5011067;28;20048;-75
2021/07/29 04:31:51;;;;;;;9.68;4.57;;;19.10;85.40;;;;;;5011715;28;20100;-75
2021/07/29 04:34:17;;;;;;;12.15;6.40;;;19.00;85.20;;;;;;5012223;28;20088;-74
2021/07/29 04:36:43;;;;;;;9.43;5.82;;;19.00;85.20;;;;;;5010951;28;20041;-75
2021/07/29 04:39:09;;;;;;;39.42;25.95;;;19.00;85.30;;;;;;5010768;28;20045;-75
2021/07/29 04:41:39;;;;;;;17.00;11.23;;;18.90;85.40;;;;;;5010290;28;20036;-76
2021/07/29 04:44:07;;;;;;;29.13;17.48;;;18.90;85.60;;;;;;5009647;28;20030;-76
2021/07/29 04:46:36;;;;;;;15.73;8.25;;;18.90;85.60;;;;;;5011110;28;20527;-74
2021/07/29 04:49:03;;;;;;;29.23;17.05;;;18.80;85.50;;;;;;5010871;28;20053;-74
2021/07/29 04:51:29;;;;;;;8.45;4.53;;;18.80;85.60;;;;;;5010765;28;20105;-75
2021/07/29 04:53:55;;;;;;;19.58;13.85;;;18.80;85.80;;;;;;5012589;28;20102;-74
2021/07/29 04:56:20;;;;;;;9.48;5.78;;;18.70;85.70;;;;;;5010405;28;20500;-75
2021/07/29 04:58:49;;;;;;;16.55;12.32;;;18.70;85.90;;;;;;5010585;28;20480;-75
2021/07/29 05:01:16;;;;;;;20.05;10.25;;;18.70;86.00;;;;;;5010533;28;20072;-75
2021/07/29 05:03:41;;;;;;;10.20;6.75;;;18.60;86.90;;;;;;5012002;28;20030;-75
2021/07/29 05:06:07;;;;;;;18.35;13.68;;;18.50;87.10;;;;;;5012017;28;20034;-74
2021/07/29 05:08:33;;;;;;;11.00;7.80;;;18.40;88.10;;;;;;5009662;28;20873;-74
2021/07/29 05:11:00;;;;;;;7.60;4.40;;;18.30;88.80;;;;;;5012439;28;20097;-75
2021/07/29 05:13:26;;;;;;;11.75;6.28;;;18.20;89.00;;;;;;5009122;28;20481;-75
2021/07/29 05:15:51;;;;;;;6.07;4.15;;;18.10;88.80;;;;;;5011396;28;20068;-75
2021/07/29 05:18:17;;;;;;;6.63;3.13;;;18.10;90.00;;;;;;5009863;28;20034;-73
2021/07/29 05:20:42;;;;;;;6.38;3.90;;;18.10;89.90;;;;;;5010479;28;20116;-74
2021/07/29 05:23:08;;;;;;;5.93;3.03;;;18.00;89.50;;;;;;5007898;28;20233;-73
2021/07/29 05:25:35;;;;;;;6.68;3.65;;;18.10;90.30;;;;;;5009733;28;20034;-73
2021/07/29 05:28:01;;;;;;;7.80;3.17;;;18.00;90.50;;;;;;5008408;28;20022;-73
2021/07/29 05:30:26;;;;;;;2.13;1.90;;;17.90;90.70;;;;;;5009184;28;20352;-73
2021/07/29 05:32:52;;;;;;;8.02;2.60;;;17.70;91.00;;;;;;5009819;28;20022;-74
2021/07/29 05:35:17;;;;;;;7.25;2.63;;;17.60;91.10;;;;;;5007175;28;20026;-73
2021/07/29 05:37:43;;;;;;;5.55;2.67;;;17.50;91.50;;;;;;5009675;28;20104;-74
2021/07/29 05:40:09;;;;;;;5.50;2.30;;;17.50;91.60;;;;;;5009662;28;20041;-74
2021/07/29 05:42:35;;;;;;;9.38;3.15;;;17.40;91.60;;;;;;5009390;28;20096;-74
2021/07/29 05:45:04;;;;;;;5.13;3.10;;;17.40;91.70;;;;;;5010676;28;20014;-74
2021/07/29 05:47:29;;;;;;;6.03;2.70;;;17.40;92.10;;;;;;5009059;28;20507;-74
2021/07/29 05:49:55;;;;;;;6.38;3.60;;;17.30;92.00;;;;;;5010669;28;20022;-74
2021/07/29 05:52:20;;;;;;;8.02;4.03;;;17.30;92.00;;;;;;5009129;28;20041;-74
2021/07/29 05:54:46;;;;;;;4.95;3.35;;;17.30;91.90;;;;;;5009339;28;20021;-75
2021/07/29 05:57:11;;;;;;;8.27;3.75;;;17.30;92.00;;;;;;5009033;28;20046;-75
2021/07/29 05:59:37;;;;;;;8.68;4.03;;;17.40;91.80;;;;;;5010521;28;20034;-74
2021/07/29 06:02:02;;;;;;;5.80;3.30;;;17.50;91.70;;;;;;5010232;28;20563;-74
2021/07/29 06:04:28;;;;;;;7.45;3.67;;;17.60;91.60;;;;;;5007418;28;20044;-75
2021/07/29 06:06:53;;;;;;;10.77;3.80;;;17.60;91.60;;;;;;5010134;28;20052;-74
2021/07/29 06:09:19;;;;;;;7.15;3.47;;;17.60;91.50;;;;;;5009028;28;20084;-75
2021/07/29 06:11:44;;;;;;;6.05;3.42;;;17.70;91.20;;;;;;5010298;28;20034;-74
2021/07/29 06:14:10;;;;;;;5.43;1.75;;;17.70;91.10;;;;;;5009493;28;20116;-74
2021/07/29 06:16:36;;;;;;;4.32;2.20;;;17.80;90.10;;;;;;5009909;28;20038;-74
2021/07/29 06:19:05;;;;;;;5.68;2.05;;;17.80;89.70;;;;;;5008639;28;20052;-74
2021/07/29 06:21:31;;;;;;;4.43;2.22;;;17.80;89.90;;;;;;5010035;28;20024;-74
2021/07/29 06:23:57;;;;;;;3.75;2.38;;;17.80;89.80;;;;;;5009349;28;20026;-74
2021/07/29 06:26:23;;;;;;;5.88;2.25;;;17.80;89.30;;;;;;5009068;28;20156;-76
2021/07/29 06:28:48;;;;;;;6.82;2.08;;;17.70;89.60;;;;;;5007120;28;20026;-76
2021/07/29 06:31:14;;;;;;;3.60;1.65;;;17.80;89.20;;;;;;5006341;28;20034;-74
2021/07/29 06:33:39;;;;;;;3.97;1.65;;;17.80;88.90;;;;;;5006201;28;20061;-76
2021/07/29 06:36:05;;;;;;;2.90;1.40;;;17.80;89.00;;;;;;5009003;28;20048;-75
2021/07/29 06:38:31;;;;;;;3.60;1.40;;;17.80;88.80;;;;;;5008826;28;20034;-75
2021/07/29 06:40:57;;;;;;;3.55;1.60;;;17.80;89.00;;;;;;5008669;28;20044;-74
2021/07/29 06:43:22;;;;;;;2.88;1.55;;;17.80;88.20;;;;;;5008071;28;20488;-74
2021/07/29 06:45:48;;;;;;;2.45;1.23;;;17.80;88.50;;;;;;5007503;28;20505;-74
2021/07/29 06:48:13;;;;;;;5.55;1.88;;;17.90;87.90;;;;;;5007814;28;20033;-74
2021/07/29 06:50:39;;;;;;;7.18;1.67;;;17.90;87.50;;;;;;5010272;28;20079;-74
2021/07/29 06:53:04;;;;;;;2.45;1.38;;;17.90;87.30;;;;;;5007373;28;20041;-75
2021/07/29 06:55:30;;;;;;;5.50;1.70;;;17.90;87.90;;;;;;5008460;28;20529;-75
2021/07/29 06:57:56;;;;;;;1.90;1.00;;;17.90;87.30;;;;;;5008201;28;20433;-76
2021/07/29 07:00:21;;;;;;;4.25;0.95;;;18.00;86.90;;;;;;5009787;28;20136;-75
2021/07/29 07:02:47;;;;;;;3.38;1.60;;;18.10;86.20;;;;;;5008618;28;20167;-76
2021/07/29 07:05:12;;;;;;;3.58;1.55;;;18.10;85.60;;;;;;5007037;28;20034;-75
2021/07/29 07:07:38;;;;;;;2.85;1.67;;;18.20;85.80;;;;;;5006971;28;20022;-75
2021/07/29 07:10:03;;;;;;;3.47;1.23;;;18.30;85.30;;;;;;5007890;28;20549;-76
2021/07/29 07:12:29;;;;;;;3.15;1.13;;;18.30;83.00;;;;;;5008422;28;20108;-74
2021/07/29 07:14:54;;;;;;;2.72;1.27;;;18.30;84.00;;;;;;5007913;28;20041;-74
2021/07/29 07:17:20;;;;;;;3.47;1.60;;;18.40;84.10;;;;;;5009511;28;20538;-73
2021/07/29 07:19:49;;;;;;;3.97;1.33;;;18.40;83.80;;;;;;5004558;28;20030;-71
2021/07/29 07:22:14;;;;;;;6.65;1.40;;;18.40;84.30;;;;;;5008492;28;20022;-72
2021/07/29 07:24:40;;;;;;;4.10;1.30;;;18.50;84.10;;;;;;5007153;28;20578;-71
2021/07/29 07:27:05;;;;;;;12.40;1.33;;;18.60;84.50;;;;;;5008526;28;20373;-75
2021/07/29 07:29:35;;;;;;;3.17;2.00;;;18.60;84.50;;;;;;5007610;28;20038;-75
2021/07/29 07:32:01;;;;;;;3.53;1.77;;;18.70;84.30;;;;;;5007160;28;20049;-75
2021/07/29 07:34:26;;;;;;;2.55;1.48;;;18.80;82.70;;;;;;5014290;28;20520;-72
2021/07/29 07:36:52;;;;;;;3.60;1.77;;;18.80;82.30;;;;;;5010949;28;20370;-73
2021/07/29 07:39:17;;;;;;;5.90;1.65;;;18.80;82.70;;;;;;5014323;28;20038;-73
2021/07/29 07:41:43;;;;;;;7.10;1.90;;;18.90;82.70;;;;;;5015054;28;20471;-72
2021/07/29 07:44:08;;;;;;;5.80;1.50;;;18.90;81.10;;;;;;5015502;28;20042;-72
2021/07/29 07:46:34;;;;;;;5.13;1.15;;;18.90;81.70;;;;;;5013716;28;20040;-72
2021/07/29 07:48:59;;;;;;;2.17;0.88;;;19.00;81.00;;;;;;5014586;28;20038;-72
2021/07/29 07:51:26;;;;;;;5.70;1.13;;;19.10;81.00;;;;;;5014751;28;20370;-72
2021/07/29 07:53:52;;;;;;;5.53;1.70;;;19.10;79.90;;;;;;5012113;28;20069;-72
2021/07/29 07:56:17;;;;;;;3.55;1.60;;;19.10;80.10;;;;;;5014804;28;20096;-74
2021/07/29 07:58:43;;;;;;;1.88;0.85;;;19.10;80.20;;;;;;5015218;28;20030;-75
2021/07/29 08:01:08;;;;;;;2.03;1.00;;;19.10;79.20;;;;;;5021077;28;20032;-74
2021/07/29 08:03:34;;;;;;;9.32;1.38;;;19.10;79.40;;;;;;5014138;28;20052;-74
2021/07/29 08:06:03;;;;;;;5.28;2.30;;;19.20;79.60;;;;;;5014302;28;20025;-74
2021/07/29 08:08:28;;;;;;;6.15;1.45;;;19.30;79.50;;;;;;5014254;28;20032;-74
2021/07/29 08:10:54;;;;;;;2.90;1.40;;;19.50;77.30;;;;;;5012300;28;20025;-74
2021/07/29 08:13:19;;;;;;;5.88;1.50;;;19.50;77.80;;;;;;5014780;28;20022;-75
2021/07/29 08:15:45;;;;;;;3.38;1.17;;;19.70;76.00;;;;;;5014323;28;20120;-76
2021/07/29 08:18:11;;;;;;;4.32;1.40;;;19.60;75.90;;;;;;5014599;28;20061;-75
2021/07/29 08:20:40;;;;;;;2.72;1.27;;;19.60;76.90;;;;;;5012495;28;20508;-74
2021/07/29 08:23:06;;;;;;;5.47;1.30;;;19.80;75.40;;;;;;5015706;28;20014;-75
2021/07/29 08:25:31;;;;;;;3.05;1.17;;;19.90;75.60;;;;;;5013503;28;20096;-74
2021/07/29 08:27:57;;;;;;;6.35;2.38;;;20.00;75.90;;;;;;5012990;28;20108;-73
2021/07/29 08:30:22;;;;;;;3.10;1.17;;;20.20;75.40;;;;;;5013765;28;20504;-74
2021/07/29 08:32:48;;;;;;;3.67;1.13;;;20.30;75.00;;;;;;5015141;28;20022;-74
2021/07/29 08:35:14;;;;;;;4.50;1.10;;;20.50;73.50;;;;;;5012194;28;20390;-75
2021/07/29 08:37:46;;;;;;;4.80;1.55;;;20.60;72.80;;;;;;5014392;28;20019;-75
2021/07/29 08:40:19;;;;;;;3.05;1.73;;;20.80;73.10;;;;;;5014453;28;20022;-75
2021/07/29 08:42:46;;;;;;;2.75;1.00;;;20.90;72.60;;;;;;5014239;28;20033;-75
2021/07/29 08:45:11;;;;;;;3.78;1.48;;;20.90;72.20;;;;;;5011572;28;20026;-75
2021/07/29 08:47:37;;;;;;;5.13;1.13;;;20.80;72.50;;;;;;5010078;28;20076;-74
2021/07/29 08:50:05;;;;;;;4.57;1.67;;;20.80;73.00;;;;;;5011853;28;20167;-74
2021/07/29 08:52:31;;;;;;;1.92;1.30;;;20.90;72.30;;;;;;5011605;28;20041;-72
2021/07/29 08:54:57;;;;;;;1.80;1.23;;;21.00;72.40;;;;;;5012353;28;21015;-74
2021/07/29 08:57:28;;;;;;;4.03;1.48;;;21.20;71.70;;;;;;5012210;28;20030;-73
2021/07/29 08:59:59;;;;;;;3.17;1.50;;;21.30;71.00;;;;;;5009879;28;20143;-73
2021/07/29 09:02:26;;;;;;;3.33;1.40;;;21.40;71.00;;;;;;5009361;28;20041;-72
2021/07/29 09:05:15;;;;;;;2.17;1.55;;;21.50;70.60;;;;;;5025725;28;20651;-72
2021/07/29 09:07:42;;;;;;;4.22;1.77;;;21.70;70.10;;;;;;5009733;28;20501;-71
2021/07/29 09:10:19;;;;;;;4.65;1.85;;;21.80;70.40;;;;;;5010345;28;20029;-72
2021/07/29 09:12:45;;;;;;;3.00;1.05;;;21.90;68.90;;;;;;5010139;28;20022;-75
2021/07/29 09:15:20;;;;;;;2.63;1.10;;;22.10;69.30;;;;;;5008245;28;20040;-76
2021/07/29 09:17:46;;;;;;;5.05;1.52;;;22.20;66.50;;;;;;5011530;28;20026;-71
2021/07/29 09:20:20;;;;;;;5.95;1.15;;;22.30;66.60;;;;;;5009782;28;20080;-71
2021/07/29 09:22:53;;;;;;;2.42;1.00;;;22.40;66.80;;;;;;5017591;28;20018;-70
2021/07/29 09:25:22;;;;;;;3.08;1.33;;;22.50;64.40;;;;;;5009506;28;20045;-70
2021/07/29 09:27:50;;;;;;;2.40;1.13;;;22.60;64.40;;;;;;5024855;28;20116;-71
2021/07/29 09:30:24;;;;;;;3.47;1.52;;;22.70;61.20;;;;;;5009555;28;20389;-74
2021/07/29 09:33:09;;;;;;;1.73;0.93;;;22.60;60.60;;;;;;5009099;28;20064;-75
2021/07/29 09:35:41;;;;;;;2.50;0.75;;;22.60;60.50;;;;;;5007533;28;20026;-72
2021/07/29 09:38:19;;;;;;;5.60;1.02;;;22.50;58.90;;;;;;5008419;28;20029;-73
2021/07/29 09:40:46;;;;;;;0.80;0.70;;;22.50;59.40;;;;;;5010336;28;20056;-73
2021/07/29 09:43:14;;;;;;;5.22;1.20;;;22.50;59.30;;;;;;5001192;28;20508;-74
2021/07/29 09:45:41;;;;;;;1.75;0.85;;;22.70;60.10;;;;;;5008313;28;20025;-72
2021/07/29 09:48:08;;;;;;;6.53;1.27;;;22.80;59.90;;;;;;5010113;28;20018;-74
2021/07/29 09:50:35;;;;;;;2.90;0.70;;;22.90;59.50;;;;;;5010133;28;20025;-74
2021/07/29 09:53:01;;;;;;;2.25;0.82;;;22.90;59.90;;;;;;5009301;28;20017;-73
2021/07/29 09:55:29;;;;;;;4.53;0.90;;;22.80;58.40;;;;;;5009400;28;20113;-73
2021/07/29 09:57:55;;;;;;;2.47;1.00;;;22.60;57.70;;;;;;5011010;28;20018;-73
2021/07/29 10:00:21;;;;;;;3.72;0.80;;;22.30;58.10;;;;;;5006621;28;20608;-73
2021/07/29 10:02:47;;;;;;;4.35;0.95;;;22.20;58.10;;;;;;5009426;28;20022;-73
2021/07/29 10:05:19;;;;;;;1.45;0.85;;;22.00;58.00;;;;;;5008167;28;20412;-73
2021/07/29 10:07:47;;;;;;;1.10;0.80;;;21.90;58.30;;;;;;5007775;28;20026;-74
2021/07/29 10:10:17;;;;;;;1.60;0.60;;;21.90;58.30;;;;;;5007116;28;20045;-73
2021/07/29 10:12:47;;;;;;;2.35;0.73;;;22.00;57.70;;;;;;5022913;28;20361;-73
2021/07/29 10:15:13;;;;;;;7.85;1.02;;;22.10;58.60;;;;;;5000451;28;20026;-73
2021/07/29 10:17:39;;;;;;;3.05;0.75;;;22.20;58.60;;;;;;5009255;28;20026;-73
2021/07/29 10:20:23;;;;;;;2.33;0.80;;;22.30;57.00;;;;;;5009800;28;20064;-73
2021/07/29 10:23:12;;;;;;;1.85;0.82;;;22.40;57.30;;;;;;5008079;28;20028;-73
2021/07/29 10:25:53;;;;;;;2.67;0.60;;;22.40;57.10;;;;;;5001360;28;20129;-73
2021/07/29 10:28:24;;;;;;;2.95;0.88;;;22.60;57.10;;;;;;5031507;28;20044;-73
2021/07/29 10:30:58;;;;;;;4.10;0.88;;;22.80;56.20;;;;;;5009977;28;20041;-73
2021/07/29 10:33:24;;;;;;;4.85;1.08;;;22.80;56.20;;;;;;5006933;28;20026;-73
2021/07/29 10:35:51;;;;;;;1.50;0.95;;;22.80;55.70;;;;;;5023917;28;20484;-73
2021/07/29 10:38:44;;;;;;;4.70;0.98;;;22.80;55.70;;;;;;5009102;28;20026;-73
2021/07/29 10:41:10;;;;;;;3.75;0.90;;;22.90;56.50;;;;;;5006786;28;20480;-74
2021/07/29 10:43:39;;;;;;;4.13;0.73;;;22.90;54.60;;;;;;5006789;28;20049;-74
2021/07/29 10:46:05;;;;;;;2.15;0.90;;;22.80;54.50;;;;;;5008032;28;20048;-73
2021/07/29 10:49:15;;;;;;;1.88;0.80;;;22.90;55.60;;;;;;5007016;28;20416;-73
2021/07/29 10:52:04;;;;;;;4.50;1.10;;;23.00;54.40;;;;;;5006765;28;20022;-72
2021/07/29 10:54:30;;;;;;;4.07;1.23;;;23.10;53.70;;;;;;5024166;28;20030;-72
2021/07/29 10:56:56;;;;;;;5.43;1.05;;;23.20;54.30;;;;;;5009439;28;20084;-71
2021/07/29 10:59:22;;;;;;;2.80;0.73;;;23.40;53.20;;;;;;5006264;28;20547;-72
2021/07/29 11:01:48;;;;;;;3.65;0.88;;;23.50;51.80;;;;;;5024150;28;20029;-71
2021/07/29 11:04:14;;;;;;;6.47;0.68;;;23.50;50.60;;;;;;5009487;28;20097;-72
2021/07/29 11:06:43;;;;;;;4.00;0.68;;;23.40;50.00;;;;;;5010234;28;20041;-73
2021/07/29 11:09:19;;;;;;;1.00;0.50;;;23.30;51.00;;;;;;5027301;28;20040;-74
2021/07/29 11:11:47;;;;;;;6.05;1.05;;;23.40;51.30;;;;;;5009277;28;20041;-74
2021/07/29 11:14:14;;;;;;;3.60;1.00;;;23.60;51.10;;;;;;5009251;28;20112;-71
2021/07/29 11:16:40;;;;;;;2.50;0.70;;;23.60;50.50;;;;;;5008927;28;20508;-72
2021/07/29 11:19:06;;;;;;;5.18;0.98;;;23.50;50.70;;;;;;5005563;28;20535;-72
2021/07/29 11:21:33;;;;;;;7.53;1.02;;;23.50;50.20;;;;;;5008647;28;20037;-72
2021/07/29 11:23:59;;;;;;;3.40;0.65;;;23.50;51.50;;;;;;5007969;28;20107;-73
2021/07/29 11:26:25;;;;;;;1.58;0.73;;;23.60;51.30;;;;;;5007903;28;20046;-74
2021/07/29 11:29:07;;;;;;;2.08;0.77;;;23.60;51.00;;;;;;5007972;28;20361;-73
2021/07/29 11:31:34;;;;;;;2.17;0.60;;;23.50;50.60;;;;;;5009144;28;20028;-73
2021/07/29 11:34:00;;;;;;;2.33;0.80;;;23.40;50.60;;;;;;5006723;28;20022;-73
2021/07/29 11:36:25;;;;;;;1.50;0.47;;;23.30;51.30;;;;;;5008648;28;20904;-73
2021/07/29 11:39:00;;;;;;;4.90;1.15;;;23.40;51.70;;;;;;5006243;28;20485;-73
2021/07/29 11:41:25;;;;;;;1.95;0.88;;;23.40;52.00;;;;;;5009647;28;20029;-72
2021/07/29 11:43:54;;;;;;;2.40;1.00;;;23.40;52.10;;;;;;5008527;28;20386;-73
2021/07/29 11:46:19;;;;;;;4.43;0.63;;;23.50;51.20;;;;;;5008361;28;20069;-72
2021/07/29 11:48:45;;;;;;;1.55;0.68;;;23.50;50.60;;;;;;5006952;28;20061;-73
2021/07/29 11:51:14;;;;;;;1.20;0.60;;;23.60;50.10;;;;;;5004861;28;20030;-73
2021/07/29 11:53:42;;;;;;;1.00;0.70;;;23.60;50.60;;;;;;5009229;28;20018;-73
2021/07/29 11:56:09;;;;;;;5.88;1.00;;;23.80;50.50;;;;;;5014963;28;20126;-73
2021/07/29 11:58:39;;;;;;;2.53;0.63;;;23.90;49.90;;;;;;5007750;28;20040;-72
2021/07/29 12:01:12;;;;;;;2.25;0.80;;;23.90;50.10;;;;;;5007881;28;20065;-72
2021/07/29 12:03:41;;;;;;;3.80;0.65;;;24.00;50.60;;;;;;5008927;28;20053;-72
2021/07/29 12:06:07;;;;;;;2.95;0.65;;;23.90;49.60;;;;;;5006946;28;20033;-73
2021/07/29 12:08:34;;;;;;;2.08;0.68;;;23.90;50.00;;;;;;5006867;28;20023;-73
2021/07/29 12:11:00;;;;;;;2.20;0.80;;;24.00;49.00;;;;;;5008964;28;20026;-73
2021/07/29 12:13:28;;;;;;;1.98;0.60;;;24.10;48.30;;;;;;5007399;28;20030;-72
2021/07/29 12:15:54;;;;;;;2.67;1.00;;;24.00;48.90;;;;;;5008077;28;20053;-72
2021/07/29 12:18:21;;;;;;;4.13;0.80;;;24.10;50.00;;;;;;5007255;28;20030;-72
2021/07/29 12:20:48;;;;;;;3.83;0.90;;;24.20;49.00;;;;;;5011908;28;20053;-72
2021/07/29 12:23:15;;;;;;;2.45;0.45;;;24.20;48.40;;;;;;5009161;28;20068;-72
2021/07/29 12:25:41;;;;;;;2.10;0.63;;;24.20;48.50;;;;;;5011024;28;20029;-75
2021/07/29 12:28:07;;;;;;;2.92;0.60;;;24.30;48.00;;;;;;5011262;28;20017;-74
2021/07/29 12:30:43;;;;;;;5.00;0.90;;;24.40;48.00;;;;;;5012600;28;20081;-73
2021/07/29 12:33:10;;;;;;;2.80;0.85;;;24.50;47.90;;;;;;5011736;28;20026;-73
2021/07/29 12:35:38;;;;;;;2.92;0.70;;;24.70;47.40;;;;;;5011004;28;20036;-73
2021/07/29 12:38:04;;;;;;;2.67;1.08;;;24.70;47.00;;;;;;5010082;28;20017;-74
2021/07/29 12:40:31;;;;;;;4.78;0.50;;;24.70;46.60;;;;;;5011479;28;20033;-74
2021/07/29 12:43:26;;;;;;;2.70;0.75;;;24.60;47.00;;;;;;5024077;28;20115;-74
2021/07/29 12:45:59;;;;;;;6.50;0.90;;;24.40;48.00;;;;;;5011863;28;20069;-75
2021/07/29 12:48:26;;;;;;;3.55;0.47;;;24.40;48.20;;;;;;5026733;28;20022;-73